Atlantic Horizon — 5BEK2 — position and weather

sailwx.info

Track history (hours):
 
Tides and Currents Weather Stations Pressure Air Temp Water Temp Dewpoint Dewpoint Depression Visibility Wind Speed Wind Dir Waves Ship Positions

Atlantic Horizon

Last reported at 2018-Jun-10 13:21 UTC. Time now 2018-Jun-19 16:25 UTC.
Position N 35°58' W 005°34'.
Warning: this ship's position is 9 days out of date.

Length 110 m; draft 5.5 m.

Type: Ship. MMSI: 212772000.

Date/timePositionNaut miles runAvg speedWind from/ knotsBaromVisibWave heightAir tempDewpointWater temp
2018-Jun-10 13:21N 35°58' W 005°34'3 7.4
2018-Jun-10 13:00N 35°58' W 005°31'4 7.8
2018-Jun-10 12:30N 35°59' W 005°26'4 7.2
2018-Jun-10 12:00N 36°00' W 005°22'3 7.0
2018-Jun-10 11:30N 36°01' W 005°18'3 6.7
2018-Jun-10 11:00N 36°02' W 005°14'203 8.7
2018-Jun-09 11:31N 37°06' W 001°14'010.2
2018-Jun-09 11:30N 37°07' W 001°14'610.1
2018-Jun-09 10:57N 37°10' W 001°08'510.0
2018-Jun-09 10:30N 37°13' W 001°04'610.1
2018-Jun-09 09:52N 37°17' W 000°58'410.1
2018-Jun-09 09:28N 37°20' W 000°54'510.2
2018-Jun-09 09:00N 37°23' W 000°49'5 9.9
2018-Jun-09 08:30N 37°26' W 000°45'1110.1
2018-Jun-09 07:22N 37°34' W 000°34'410.5
2018-Jun-09 07:00N 37°37' W 000°31'510.5
2018-Jun-09 06:30N 37°41' W 000°27'1210.4
2018-Jun-09 05:20N 37°52' W 000°19'410.3
2018-Jun-09 04:58N 37°55' W 000°16'510.4
2018-Jun-09 04:29N 37°59' W 000°13'510.3
2018-Jun-09 04:00N 38°03' W 000°09'610.3
2018-Jun-09 03:27N 38°08' W 000°05'510.2
2018-Jun-09 03:00N 38°12' W 000°02'1010.1
2018-Jun-09 02:02N 38°20' E 000°05'010.0
2018-Jun-09 01:59N 38°20' E 000°05'510.2
2018-Jun-09 01:30N 38°25' E 000°08'510.2
2018-Jun-09 00:58N 38°29' E 000°12'510.3
2018-Jun-09 00:30N 38°33' E 000°15'510.3
2018-Jun-09 00:00N 38°38' E 000°18'510.3
2018-Jun-08 23:30N 38°42' E 000°22'5210.4
2018-Jun-08 18:30N 39°25' W 000°17'3 5.2
2018-Jun-08 17:58N 39°27' W 000°19'0 0.0
2018-Jun-08 17:28N 39°27' W 000°19'0 0.0
2018-Jun-08 16:55N 39°27' W 000°19'0 0.0
2018-Jun-08 16:28N 39°27' W 000°19'0 0.0
2018-Jun-08 16:00N 39°27' W 000°19'0 0.0
2018-Jun-08 15:30N 39°27' W 000°19'0 0.0
2018-Jun-08 15:00N 39°27' W 000°19'0 0.0
2018-Jun-08 14:30N 39°27' W 000°19'0 0.0
2018-Jun-08 14:00N 39°27' W 000°19'0 0.0
2018-Jun-08 13:29N 39°27' W 000°19'0 0.0
2018-Jun-08 12:59N 39°27' W 000°19'0 0.0
2018-Jun-08 12:29N 39°27' W 000°19'0 0.0
2018-Jun-08 11:59N 39°27' W 000°19'0 0.0
2018-Jun-08 11:29N 39°27' W 000°19'0 0.0
2018-Jun-08 10:58N 39°27' W 000°19'0 0.0
2018-Jun-08 10:28N 39°27' W 000°19'0 0.0
2018-Jun-08 09:58N 39°27' W 000°19'0 0.0
2018-Jun-08 09:28N 39°27' W 000°19'0 0.0
2018-Jun-08 09:00N 39°27' W 000°19'0 0.0
2018-Jun-08 08:30N 39°27' W 000°19'0 0.0
2018-Jun-08 08:00N 39°27' W 000°19'0 0.0
2018-Jun-08 07:30N 39°27' W 000°19'0 0.0
2018-Jun-08 07:00N 39°27' W 000°19'0 0.0
2018-Jun-08 06:29N 39°27' W 000°19'0 0.0
2018-Jun-08 05:59N 39°27' W 000°19'0 0.0
2018-Jun-08 05:29N 39°27' W 000°19'0 0.0
2018-Jun-08 04:59N 39°27' W 000°19'0 0.0
2018-Jun-08 04:28N 39°27' W 000°19'0 0.0
2018-Jun-08 03:58N 39°27' W 000°19'0 0.0
2018-Jun-08 03:28N 39°27' W 000°19'0 0.0
2018-Jun-08 02:58N 39°27' W 000°19'0 0.0
2018-Jun-08 02:28N 39°27' W 000°19'0 0.0
2018-Jun-08 02:00N 39°27' W 000°19'0 0.0
2018-Jun-08 01:30N 39°27' W 000°19'0 0.0
2018-Jun-08 01:00N 39°27' W 000°19'0 0.0
2018-Jun-08 00:30N 39°27' W 000°19'0 0.0
2018-Jun-08 00:00N 39°27' W 000°19'0 0.0
2018-Jun-07 23:29N 39°27' W 000°19'0 0.0
2018-Jun-07 22:59N 39°27' W 000°19'0 0.0
2018-Jun-07 22:29N 39°27' W 000°19'0 0.0
2018-Jun-07 21:59N 39°27' W 000°19'0 0.0
2018-Jun-07 21:28N 39°27' W 000°19'0 0.0
2018-Jun-07 20:58N 39°27' W 000°19'0 0.0
2018-Jun-07 20:28N 39°27' W 000°19'0 0.0
2018-Jun-07 20:00N 39°27' W 000°19'7 5.8
2018-Jun-07 18:45N 39°30' W 000°11'  
2018-Jun-04 22:52N 38°49' E 000°27'4 9.1
2018-Jun-04 22:28N 38°45' E 000°29'8 8.9
2018-Jun-04 21:35N 38°38' E 000°25'1 9.4
2018-Jun-04 21:30N 38°37' E 000°24'5 9.5
2018-Jun-04 21:00N 38°33' E 000°21'26 9.7
2018-Jun-04 18:18N 38°12' E 000°02'3 9.7
2018-Jun-04 18:00N 38°09' W 000°00'5 9.7
2018-Jun-04 17:30N 38°05' W 000°03'5 9.6
2018-Jun-04 17:00N 38°01' W 000°07'5 9.7
2018-Jun-04 16:30N 37°57' W 000°10'5 9.8
2018-Jun-04 16:00N 37°53' W 000°13'6 9.8
2018-Jun-04 15:27N 37°48' W 000°17'4 9.8
2018-Jun-04 15:00N 37°45' W 000°20'5 9.8
2018-Jun-04 14:30N 37°41' W 000°24'5 9.7
2018-Jun-04 14:00N 37°37' W 000°28'5 9.7
2018-Jun-04 13:30N 37°33' W 000°31'5 9.8
2018-Jun-04 13:00N 37°30' W 000°35'5 9.9
2018-Jun-04 12:29N 37°26' W 000°40'510.1
2018-Jun-04 12:00N 37°23' W 000°45'510.2
2018-Jun-04 11:30N 37°20' W 000°50'510.3
2018-Jun-04 11:00N 37°17' W 000°55'510.5
2018-Jun-04 10:29N 37°13' W 001°00'610.4
2018-Jun-04 09:55N 37°09' W 001°05'20610.1
2018-Jun-03 13:25N 36°01' W 005°08'511.2
2018-Jun-03 13:00N 36°00' W 005°14'612.0
2018-Jun-03 12:30N 35°59' W 005°21'611.9
2018-Jun-03 12:00N 35°57' W 005°28'711.4
2018-Jun-03 11:25N 35°55' W 005°36'511.0
2018-Jun-03 11:00N 35°54' W 005°41'610.6
2018-Jun-03 10:27N 35°53' W 005°49'  
Track history (hours):
 
Tides and Currents Weather Stations Pressure Air Temp Water Temp Dewpoint Dewpoint Depression Visibility Wind Speed Wind Dir Waves Ship Positions

Atlantic Horizon

Last reported at 2018-Jun-10 13:21 UTC. Time now 2018-Jun-19 16:25 UTC.
Position N 35°58' W 005°34'.
Warning: this ship's position is 9 days out of date.

Length 110 m; draft 5.5 m.

Type: Ship. MMSI: 212772000.

Date/timePositionNaut miles runAvg speedWind from/ knotsBaromVisibWave heightAir tempDewpointWater temp
2018-Jun-10 13:21N 35°58' W 005°34'3 7.4
2018-Jun-10 13:00N 35°58' W 005°31'4 7.8
2018-Jun-10 12:30N 35°59' W 005°26'4 7.2
2018-Jun-10 12:00N 36°00' W 005°22'3 7.0
2018-Jun-10 11:30N 36°01' W 005°18'3 6.7
2018-Jun-10 11:00N 36°02' W 005°14'203 8.7
2018-Jun-09 11:31N 37°06' W 001°14'010.2
2018-Jun-09 11:30N 37°07' W 001°14'610.1
2018-Jun-09 10:57N 37°10' W 001°08'510.0
2018-Jun-09 10:30N 37°13' W 001°04'610.1
2018-Jun-09 09:52N 37°17' W 000°58'410.1
2018-Jun-09 09:28N 37°20' W 000°54'510.2
2018-Jun-09 09:00N 37°23' W 000°49'5 9.9
2018-Jun-09 08:30N 37°26' W 000°45'1110.1
2018-Jun-09 07:22N 37°34' W 000°34'410.5
2018-Jun-09 07:00N 37°37' W 000°31'510.5
2018-Jun-09 06:30N 37°41' W 000°27'1210.4
2018-Jun-09 05:20N 37°52' W 000°19'410.3
2018-Jun-09 04:58N 37°55' W 000°16'510.4
2018-Jun-09 04:29N 37°59' W 000°13'510.3
2018-Jun-09 04:00N 38°03' W 000°09'610.3
2018-Jun-09 03:27N 38°08' W 000°05'510.2
2018-Jun-09 03:00N 38°12' W 000°02'1010.1
2018-Jun-09 02:02N 38°20' E 000°05'010.0
2018-Jun-09 01:59N 38°20' E 000°05'510.2
2018-Jun-09 01:30N 38°25' E 000°08'510.2
2018-Jun-09 00:58N 38°29' E 000°12'510.3
2018-Jun-09 00:30N 38°33' E 000°15'510.3
2018-Jun-09 00:00N 38°38' E 000°18'510.3
2018-Jun-08 23:30N 38°42' E 000°22'5210.4
2018-Jun-08 18:30N 39°25' W 000°17'3 5.2
2018-Jun-08 17:58N 39°27' W 000°19'0 0.0
2018-Jun-08 17:28N 39°27' W 000°19'0 0.0
2018-Jun-08 16:55N 39°27' W 000°19'0 0.0
2018-Jun-08 16:28N 39°27' W 000°19'0 0.0
2018-Jun-08 16:00N 39°27' W 000°19'0 0.0
2018-Jun-08 15:30N 39°27' W 000°19'0 0.0
2018-Jun-08 15:00N 39°27' W 000°19'0 0.0
2018-Jun-08 14:30N 39°27' W 000°19'0 0.0
2018-Jun-08 14:00N 39°27' W 000°19'0 0.0
2018-Jun-08 13:29N 39°27' W 000°19'0 0.0
2018-Jun-08 12:59N 39°27' W 000°19'0 0.0
2018-Jun-08 12:29N 39°27' W 000°19'0 0.0
2018-Jun-08 11:59N 39°27' W 000°19'0 0.0
2018-Jun-08 11:29N 39°27' W 000°19'0 0.0
2018-Jun-08 10:58N 39°27' W 000°19'0 0.0
2018-Jun-08 10:28N 39°27' W 000°19'0 0.0
2018-Jun-08 09:58N 39°27' W 000°19'0 0.0
2018-Jun-08 09:28N 39°27' W 000°19'0 0.0
2018-Jun-08 09:00N 39°27' W 000°19'0 0.0
2018-Jun-08 08:30N 39°27' W 000°19'0 0.0
2018-Jun-08 08:00N 39°27' W 000°19'0 0.0
2018-Jun-08 07:30N 39°27' W 000°19'0 0.0
2018-Jun-08 07:00N 39°27' W 000°19'0 0.0
2018-Jun-08 06:29N 39°27' W 000°19'0 0.0
2018-Jun-08 05:59N 39°27' W 000°19'0 0.0
2018-Jun-08 05:29N 39°27' W 000°19'0 0.0
2018-Jun-08 04:59N 39°27' W 000°19'0 0.0
2018-Jun-08 04:28N 39°27' W 000°19'0 0.0
2018-Jun-08 03:58N 39°27' W 000°19'0 0.0
2018-Jun-08 03:28N 39°27' W 000°19'0 0.0
2018-Jun-08 02:58N 39°27' W 000°19'0 0.0
2018-Jun-08 02:28N 39°27' W 000°19'0 0.0
2018-Jun-08 02:00N 39°27' W 000°19'0 0.0
2018-Jun-08 01:30N 39°27' W 000°19'0 0.0
2018-Jun-08 01:00N 39°27' W 000°19'0 0.0
2018-Jun-08 00:30N 39°27' W 000°19'0 0.0
2018-Jun-08 00:00N 39°27' W 000°19'0 0.0
2018-Jun-07 23:29N 39°27' W 000°19'0 0.0
2018-Jun-07 22:59N 39°27' W 000°19'0 0.0
2018-Jun-07 22:29N 39°27' W 000°19'0 0.0
2018-Jun-07 21:59N 39°27' W 000°19'0 0.0
2018-Jun-07 21:28N 39°27' W 000°19'0 0.0
2018-Jun-07 20:58N 39°27' W 000°19'0 0.0
2018-Jun-07 20:28N 39°27' W 000°19'0 0.0
2018-Jun-07 20:00N 39°27' W 000°19'7 5.8
2018-Jun-07 18:45N 39°30' W 000°11'  
2018-Jun-04 22:52N 38°49' E 000°27'4 9.1
2018-Jun-04 22:28N 38°45' E 000°29'8 8.9
2018-Jun-04 21:35N 38°38' E 000°25'1 9.4
2018-Jun-04 21:30N 38°37' E 000°24'5 9.5
2018-Jun-04 21:00N 38°33' E 000°21'26 9.7
2018-Jun-04 18:18N 38°12' E 000°02'3 9.7
2018-Jun-04 18:00N 38°09' W 000°00'5 9.7
2018-Jun-04 17:30N 38°05' W 000°03'5 9.6
2018-Jun-04 17:00N 38°01' W 000°07'5 9.7
2018-Jun-04 16:30N 37°57' W 000°10'5 9.8
2018-Jun-04 16:00N 37°53' W 000°13'6 9.8
2018-Jun-04 15:27N 37°48' W 000°17'4 9.8
2018-Jun-04 15:00N 37°45' W 000°20'5 9.8
2018-Jun-04 14:30N 37°41' W 000°24'5 9.7
2018-Jun-04 14:00N 37°37' W 000°28'5 9.7
2018-Jun-04 13:30N 37°33' W 000°31'5 9.8
2018-Jun-04 13:00N 37°30' W 000°35'5 9.9
2018-Jun-04 12:29N 37°26' W 000°40'510.1
2018-Jun-04 12:00N 37°23' W 000°45'510.2
2018-Jun-04 11:30N 37°20' W 000°50'510.3
2018-Jun-04 11:00N 37°17' W 000°55'510.5
2018-Jun-04 10:29N 37°13' W 001°00'610.4
2018-Jun-04 09:55N 37°09' W 001°05'20610.1
2018-Jun-03 13:25N 36°01' W 005°08'511.2
2018-Jun-03 13:00N 36°00' W 005°14'612.0
2018-Jun-03 12:30N 35°59' W 005°21'611.9
2018-Jun-03 12:00N 35°57' W 005°28'711.4
2018-Jun-03 11:25N 35°55' W 005°36'511.0
2018-Jun-03 11:00N 35°54' W 005°41'610.6
2018-Jun-03 10:27N 35°53' W 005°49'  

Dump ship's entire track history